This is the latest recevied weather packets stored in our database for station/object AI5BL. If no packets are shown the sender has not sent any weather packets the latest 10 day(s).
| Time | Temp. | Humidity | Pressure | Rain* | Wind** | Luminosity | Snow |
|---|---|---|---|---|---|---|---|
| 1777905294 | 21.67° C | 66% | 1020 hPa | 0 mm | - | 491 W/m² | - |
| 1777904992 | 20° C | 73% | 1020.1 hPa | 0 mm | - | 457 W/m² | - |
| 1777904689 | 20° C | 69% | 1020.3 hPa | 0 mm | - | 437 W/m² | - |
| 1777904386 | 19.44° C | 71% | 1020.2 hPa | 0 mm | - | 449 W/m² | - |
| 1777904082 | 19.44° C | 72% | 1020.1 hPa | 0 mm | - | 429 W/m² | - |
| 1777903779 | 19.44° C | 74% | 1020 hPa | 0 mm | - | 405 W/m² | - |
| 1777903476 | 19.44° C | 72% | 1020.2 hPa | 0 mm | - | 384 W/m² | - |
| 1777903172 | 17.78° C | 77% | 1020 hPa | 0 mm | - | 368 W/m² | - |
| 1777902868 | 17.22° C | 79% | 1020.2 hPa | 0 mm | - | 351 W/m² | - |
| 1777902566 | 16.67° C | 82% | 1020.1 hPa | 0 mm | - | 338 W/m² | - |
| 1777902262 | 16.67° C | 79% | 1020 hPa | 0 mm | - | 340 W/m² | - |
| 1777901960 | 15.56° C | 87% | 1020.1 hPa | 0 mm | - | 329 W/m² | - |
| 1777901658 | 15.56° C | 83% | 1019.8 hPa | 0 mm | - | 316 W/m² | - |
| 1777901355 | 15.56° C | 83% | 1020 hPa | 0 mm | - | 287 W/m² | - |
| 1777901053 | 14.44° C | 87% | 1019.9 hPa | 0 mm | - | 256 W/m² | - |
| 1777900750 | 14.44° C | 86% | 1020 hPa | 0 mm | - | 220 W/m² | - |
| 1777900447 | 13.89° C | 89% | 1020.1 hPa | 0 mm | - | 188 W/m² | - |
| 1777900144 | 13.33° C | 90% | 1020.2 hPa | 0 mm | - | 161 W/m² | - |
| 1777899840 | 13.33° C | 90% | 1020.1 hPa | 0 mm | - | 140 W/m² | - |
| 1777899537 | 12.78° C | 91% | 1020 hPa | 0 mm | - | 126 W/m² | - |
| 1777899235 | 12.78° C | 91% | 1020.1 hPa | 0 mm | - | 105 W/m² | - |
| 1777898932 | 12.78° C | 91% | 1020.1 hPa | 0 mm | - | 89 W/m² | - |
| 1777898629 | 11.67° C | 92% | 1020.2 hPa | 0 mm | - | 77 W/m² | - |
| 1777898327 | 11.11° C | 95% | 1020 hPa | 0 mm | - | 78 W/m² | - |
| 1777898024 | 11.11° C | 95% | 1020 hPa | 0 mm | - | 75 W/m² | - |
* Rain latest hour (hover to see other rain measurements)
** Current wind speed in m/s (hover to see current wind gust speed)